This is the latest recevied weather packets stored in our database for station/object KQ4TV-2. If no packets are shown the sender has not sent any weather packets the latest 10 day(s).
| Time | Temp. | Humidity | Pressure | Rain* | Wind** | Luminosity | Snow |
|---|---|---|---|---|---|---|---|
| 1778044520 | 21.11° C | 71% | - | 0 mm | - | - | - |
| 1778044267 | 21.11° C | 72% | - | 0 mm | - | - | - |
| 1778044102 | 21.11° C | 71% | - | 0 mm | - | - | - |
| 1778042876 | 21.11° C | 71% | - | 0 mm | - | - | - |
| 1778042810 | 21.11° C | 71% | - | 0 mm | - | - | - |
| 1778042679 | 21.11° C | 71% | - | 0 mm | - | - | - |
| 1778042264 | 21.67° C | 71% | - | 0 mm | - | - | - |
| 1778041809 | 21.11° C | 71% | - | 0 mm | - | - | - |
| 1778041230 | 21.67° C | 71% | - | 0 mm | - | - | - |
| 1778039995 | 21.11° C | 71% | - | 0 mm | - | - | - |
| 1778034882 | 20.56° C | 74% | - | 0 mm | - | - | - |
| 1778034465 | 20° C | 76% | - | 0 mm | - | - | - |
| 1778034258 | 20° C | 76% | - | 0 mm | - | - | - |
| 1778034219 | 20° C | 76% | - | 0 mm | - | - | - |
| 1778033937 | 20° C | 78% | - | 0 mm | - | - | - |
| 1778033898 | 20° C | 78% | - | 0 mm | - | - | - |
| 1778033732 | 19.44° C | 79% | - | 0 mm | - | - | - |
| 1778033539 | 19.44° C | 80% | - | 0 mm | - | - | - |
| 1778033102 | 18.89° C | 82% | - | 0 mm | - | - | - |
| 1778032662 | 18.89° C | 83% | - | 0 mm | - | - | - |
| 1778032359 | 18.33° C | 85% | - | 0 mm | - | - | - |
| 1778031957 | 18.33° C | 86% | - | 0 mm | - | - | - |
| 1778028376 | 19.44° C | 79% | - | 0 mm | - | - | - |
| 1778028135 | 20° C | 77% | - | 0 mm | - | - | - |
| 1778024401 | 21.11° C | 62% | - | 0 mm | - | - | - |
* Rain since midnight (hover to see other rain measurements)
** Current wind speed in m/s (hover to see current wind gust speed)